EYSA

Šiauliai International Airport

Šiauliai, Lithuania
METAR EYSA 150050Z AUTO 24008KT 8000NDV BR OVC004 17/17 Q1008
Observed Flight Rules
Aug-15 @ 00:50 UTC (16 minutes ago)
Wind Clouds Conditions
240° at 8 knots
  • Overcast at 400' AGL
  • Mist
Temperatures Readings
Current 17°C / 63°F
Dewpoint 17°C / 63°F
Humidity 100%
Altimeter 29.76" Hg
Pressure 1008 hPa
Elevation 135
METAR EYSA 150050Z AUTO 24008KT 8000NDV BR OVC004 17/17 Q1008
Observed Flight Rules
Aug-15 @ 00:50 UTC
(16 minutes ago)
Wind
240° at 8 knots
Clouds
  • Overcast at 400' AGL
Conditions
  • Mist
Temperature Dewpoint
17°C / 63°F 17°C / 63°F
Humidity Altimeter Pressure
100% 29.76" Hg 1008 hPa